createdAt,value
2022-10-09T00:00:08.947Z,0.90
2022-10-09T00:00:18.929Z,0.90
2022-10-09T00:00:28.843Z,0.80
2022-10-09T00:00:38.892Z,0.80
2022-10-09T00:00:48.858Z,1.00
2022-10-09T00:00:58.926Z,1.20
2022-10-09T00:01:08.884Z,1.30
2022-10-09T00:01:18.883Z,1.10
2022-10-09T00:01:28.948Z,1.00
2022-10-09T00:01:38.922Z,0.70
2022-10-09T00:01:48.892Z,0.60
2022-10-09T00:01:58.868Z,0.60
2022-10-09T00:02:08.949Z,0.60
2022-10-09T00:02:18.990Z,0.70
2022-10-09T00:02:28.980Z,0.80
2022-10-09T00:02:38.934Z,0.70
2022-10-09T00:02:49.206Z,0.70
2022-10-09T00:02:58.821Z,0.50
2022-10-09T00:03:08.856Z,0.70
2022-10-09T00:03:18.829Z,0.90
2022-10-09T00:03:28.860Z,0.90
2022-10-09T00:03:38.880Z,0.80
2022-10-09T00:03:48.846Z,0.70
2022-10-09T00:03:58.873Z,0.60
2022-10-09T00:04:08.895Z,0.70
2022-10-09T00:04:18.896Z,0.60
2022-10-09T00:04:28.842Z,0.60
2022-10-09T00:04:38.822Z,0.60
2022-10-09T00:04:49.017Z,0.60
2022-10-09T00:04:58.889Z,0.80
2022-10-09T00:05:08.920Z,0.70
2022-10-09T00:05:18.964Z,0.90
2022-10-09T00:05:28.927Z,0.70
2022-10-09T00:05:38.937Z,0.80
2022-10-09T00:05:48.855Z,0.80
2022-10-09T00:05:58.898Z,1.00
2022-10-09T00:06:08.895Z,1.20
2022-10-09T00:06:18.928Z,1.00
2022-10-09T00:06:28.891Z,0.90
2022-10-09T00:06:38.951Z,0.70
2022-10-09T00:06:48.952Z,0.70
2022-10-09T00:06:58.822Z,0.80
2022-10-09T00:07:08.852Z,0.90
2022-10-09T00:07:18.901Z,1.00
2022-10-09T00:07:28.881Z,0.80
2022-10-09T00:07:38.915Z,0.70
2022-10-09T00:07:48.940Z,0.70
2022-10-09T00:07:58.919Z,0.60
2022-10-09T00:08:08.945Z,0.50
2022-10-09T00:08:18.904Z,0.50
2022-10-09T00:08:28.903Z,0.60
2022-10-09T00:08:38.905Z,0.60
2022-10-09T00:08:48.870Z,0.50
2022-10-09T00:08:58.855Z,0.60
2022-10-09T00:09:08.897Z,0.60
2022-10-09T00:09:18.861Z,0.90
2022-10-09T00:09:28.912Z,0.90
2022-10-09T00:09:38.908Z,0.90
2022-10-09T00:09:48.904Z,0.70
2022-10-09T00:09:58.826Z,0.70
2022-10-09T00:10:08.897Z,0.60
2022-10-09T00:10:18.885Z,0.70
2022-10-09T00:10:28.949Z,0.70
2022-10-09T00:10:38.826Z,0.70
2022-10-09T00:10:48.934Z,0.60
2022-10-09T00:10:58.860Z,0.60
2022-10-09T00:11:08.928Z,0.70
2022-10-09T00:11:18.898Z,0.70
2022-10-09T00:11:28.934Z,0.60
2022-10-09T00:11:38.852Z,0.50
2022-10-09T00:11:48.901Z,0.70
2022-10-09T00:11:58.887Z,0.70
2022-10-09T00:12:08.846Z,0.80
2022-10-09T00:12:18.877Z,0.70
2022-10-09T00:12:28.912Z,0.80
2022-10-09T00:12:38.953Z,0.70
2022-10-09T00:12:49.303Z,0.70
2022-10-09T00:12:58.838Z,0.80
2022-10-09T00:13:08.848Z,1.00
2022-10-09T00:13:18.951Z,0.90
2022-10-09T00:13:28.896Z,0.90
2022-10-09T00:13:38.907Z,0.90
2022-10-09T00:13:48.902Z,0.90
2022-10-09T00:13:58.950Z,0.80
2022-10-09T00:14:08.918Z,0.70
2022-10-09T00:14:18.908Z,0.70
2022-10-09T00:14:28.948Z,0.80
2022-10-09T00:14:38.908Z,0.70
2022-10-09T00:14:48.841Z,0.90
2022-10-09T00:14:58.910Z,0.90
2022-10-09T00:15:08.917Z,0.90
2022-10-09T00:15:18.913Z,0.60
2022-10-09T00:15:28.879Z,0.60
2022-10-09T00:15:38.930Z,0.70
2022-10-09T00:15:48.929Z,0.70
2022-10-09T00:15:58.909Z,0.80
2022-10-09T00:16:08.931Z,0.80
2022-10-09T00:16:18.906Z,1.20
2022-10-09T00:16:28.987Z,1.30
2022-10-09T00:16:38.902Z,1.30
2022-10-09T00:16:48.985Z,0.80
2022-10-09T00:16:58.890Z,0.70
2022-10-09T00:17:08.906Z,0.80
2022-10-09T00:17:18.918Z,0.80
2022-10-09T00:17:28.883Z,0.90
2022-10-09T00:17:38.865Z,0.90
2022-10-09T00:17:48.841Z,1.00
2022-10-09T00:17:58.873Z,0.80
2022-10-09T00:18:08.934Z,0.80
2022-10-09T00:18:18.950Z,0.80
2022-10-09T00:18:28.950Z,1.00
2022-10-09T00:18:39.024Z,1.20
2022-10-09T00:18:48.890Z,1.20
2022-10-09T00:18:58.889Z,1.10
2022-10-09T00:19:08.829Z,1.00
2022-10-09T00:19:18.904Z,0.90
2022-10-09T00:19:28.870Z,0.90
2022-10-09T00:19:38.833Z,1.00
2022-10-09T00:19:48.944Z,1.00
2022-10-09T00:19:58.877Z,0.90
2022-10-09T00:20:08.853Z,0.70
2022-10-09T00:20:18.880Z,0.60
2022-10-09T00:20:28.939Z,0.70
2022-10-09T00:20:38.953Z,0.90
2022-10-09T00:20:48.841Z,1.00
2022-10-09T00:20:58.872Z,1.00
2022-10-09T00:21:08.853Z,0.90
2022-10-09T00:21:18.917Z,1.00
2022-10-09T00:21:28.839Z,1.00
2022-10-09T00:21:38.829Z,1.20
2022-10-09T00:21:48.918Z,1.00
2022-10-09T00:21:58.946Z,0.90
2022-10-09T00:22:08.907Z,0.60
2022-10-09T00:22:18.876Z,0.60
2022-10-09T00:22:28.952Z,0.60
2022-10-09T00:22:38.837Z,0.90
2022-10-09T00:22:49.185Z,1.00
2022-10-09T00:22:58.955Z,1.10
2022-10-09T00:23:08.923Z,0.90
2022-10-09T00:23:18.907Z,0.80
2022-10-09T00:23:28.828Z,0.90
2022-10-09T00:23:38.913Z,0.90
2022-10-09T00:23:48.858Z,1.00
2022-10-09T00:23:58.843Z,0.80
2022-10-09T00:24:08.893Z,0.80
2022-10-09T00:24:18.858Z,0.80
2022-10-09T00:24:28.890Z,0.80
2022-10-09T00:24:38.856Z,0.80
2022-10-09T00:24:48.897Z,1.00
2022-10-09T00:24:58.870Z,1.10
2022-10-09T00:25:08.824Z,1.00
2022-10-09T00:25:18.900Z,1.00
2022-10-09T00:25:28.878Z,1.10
2022-10-09T00:25:38.844Z,1.20
2022-10-09T00:25:48.915Z,1.00
2022-10-09T00:25:58.926Z,0.80
2022-10-09T00:26:08.881Z,1.00
2022-10-09T00:26:18.943Z,1.10
2022-10-09T00:26:28.843Z,1.40
2022-10-09T00:26:38.917Z,1.30
2022-10-09T00:26:48.929Z,1.20
2022-10-09T00:26:58.917Z,1.10
2022-10-09T00:27:08.866Z,1.10
2022-10-09T00:27:18.945Z,1.10
2022-10-09T00:27:28.820Z,1.30
2022-10-09T00:27:38.858Z,1.20
2022-10-09T00:27:48.853Z,1.20
2022-10-09T00:27:58.928Z,1.20
2022-10-09T00:28:09.001Z,1.60
2022-10-09T00:28:18.975Z,2.00
2022-10-09T00:28:28.976Z,2.20
2022-10-09T00:28:39.089Z,2.00
2022-10-09T00:28:49.015Z,1.90
2022-10-09T00:28:58.965Z,1.80
2022-10-09T00:29:08.971Z,2.20
2022-10-09T00:29:18.903Z,2.30
2022-10-09T00:29:28.923Z,2.20
2022-10-09T00:29:38.885Z,1.90
2022-10-09T00:29:48.914Z,1.70
2022-10-09T00:29:58.862Z,1.70
2022-10-09T00:30:08.880Z,2.20
2022-10-09T00:30:18.826Z,2.60
2022-10-09T00:30:28.941Z,2.80
2022-10-09T00:30:38.979Z,2.40
2022-10-09T00:30:49.039Z,1.90
2022-10-09T00:30:59.037Z,1.80
2022-10-09T00:31:08.949Z,2.30
2022-10-09T00:31:18.983Z,2.40
2022-10-09T00:31:28.836Z,2.80
2022-10-09T00:31:38.891Z,2.60
2022-10-09T00:31:48.903Z,2.70
2022-10-09T00:31:58.827Z,2.40
2022-10-09T00:32:08.886Z,2.30
2022-10-09T00:32:18.944Z,2.60
2022-10-09T00:32:28.825Z,2.60
2022-10-09T00:32:38.881Z,2.40
2022-10-09T00:32:49.133Z,2.00
2022-10-09T00:32:58.937Z,2.20
2022-10-09T00:33:08.853Z,2.20
2022-10-09T00:33:18.831Z,2.60
2022-10-09T00:33:28.846Z,2.50
2022-10-09T00:33:39.222Z,2.70
2022-10-09T00:33:48.909Z,2.40
2022-10-09T00:33:58.926Z,2.30
2022-10-09T00:34:08.868Z,2.10
2022-10-09T00:34:18.847Z,2.00
2022-10-09T00:34:28.918Z,2.30
2022-10-09T00:34:38.947Z,2.20
2022-10-09T00:34:48.844Z,2.00
2022-10-09T00:34:58.896Z,1.70
2022-10-09T00:35:08.876Z,2.00
2022-10-09T00:35:18.856Z,2.40
2022-10-09T00:35:28.958Z,2.50
2022-10-09T00:35:38.855Z,2.10
2022-10-09T00:35:48.925Z,1.90
2022-10-09T00:35:58.828Z,1.80
2022-10-09T00:36:08.939Z,1.90
2022-10-09T00:36:18.932Z,1.80
2022-10-09T00:36:28.873Z,1.80
2022-10-09T00:36:38.834Z,1.70
2022-10-09T00:36:48.826Z,1.60
2022-10-09T00:36:58.942Z,1.50
2022-10-09T00:37:08.924Z,1.50
2022-10-09T00:37:18.852Z,1.50
2022-10-09T00:37:28.840Z,1.80
2022-10-09T00:37:38.904Z,1.60
2022-10-09T00:37:49.138Z,1.70
2022-10-09T00:37:58.929Z,1.50
2022-10-09T00:38:09.096Z,1.40
2022-10-09T00:38:18.944Z,1.30
2022-10-09T00:38:28.850Z,1.30
2022-10-09T00:38:38.904Z,1.50
2022-10-09T00:38:48.843Z,1.50
2022-10-09T00:38:58.875Z,1.50
2022-10-09T00:39:08.893Z,1.50
2022-10-09T00:39:18.902Z,1.40
2022-10-09T00:39:28.868Z,1.30
2022-10-09T00:39:38.858Z,1.20
2022-10-09T00:39:48.919Z,1.20
2022-10-09T00:39:58.936Z,1.30
2022-10-09T00:40:08.838Z,1.30
2022-10-09T00:40:18.826Z,1.40
2022-10-09T00:40:28.893Z,1.10
2022-10-09T00:40:38.941Z,1.20
2022-10-09T00:40:48.884Z,1.20
2022-10-09T00:40:58.938Z,1.50
2022-10-09T00:41:08.847Z,1.30
2022-10-09T00:41:18.866Z,1.60
2022-10-09T00:41:28.859Z,1.60
2022-10-09T00:41:38.873Z,1.60
2022-10-09T00:41:49.036Z,1.50
2022-10-09T00:41:59.076Z,1.60
2022-10-09T00:42:08.855Z,1.60
2022-10-09T00:42:18.822Z,1.40
2022-10-09T00:42:28.837Z,1.10
2022-10-09T00:42:39.009Z,1.40
2022-10-09T00:42:49.307Z,1.50
2022-10-09T00:42:58.972Z,1.60
2022-10-09T00:43:08.847Z,1.40
2022-10-09T00:43:18.903Z,1.20
2022-10-09T00:43:28.911Z,1.20
2022-10-09T00:43:39.012Z,1.00
2022-10-09T00:43:48.921Z,1.10
2022-10-09T00:43:58.846Z,1.10
2022-10-09T00:44:08.839Z,1.20
2022-10-09T00:44:18.839Z,1.10
2022-10-09T00:44:28.898Z,0.90
2022-10-09T00:44:38.821Z,0.80
2022-10-09T00:44:48.909Z,0.90
2022-10-09T00:44:58.946Z,1.00
2022-10-09T00:45:08.825Z,1.20
2022-10-09T00:45:18.867Z,1.10
2022-10-09T00:45:28.946Z,1.10
2022-10-09T00:45:38.839Z,0.80
2022-10-09T00:45:48.873Z,0.90
2022-10-09T00:45:58.906Z,0.90
2022-10-09T00:46:08.926Z,1.10
2022-10-09T00:46:19.302Z,1.10
2022-10-09T00:46:28.982Z,1.00
2022-10-09T00:46:38.924Z,0.80
2022-10-09T00:46:48.987Z,0.90
2022-10-09T00:46:58.879Z,1.20
2022-10-09T00:47:08.850Z,1.30
2022-10-09T00:47:18.937Z,1.10
2022-10-09T00:47:28.877Z,1.10
2022-10-09T00:47:38.907Z,0.80
2022-10-09T00:47:48.926Z,0.80
2022-10-09T00:47:58.891Z,0.60
2022-10-09T00:48:08.930Z,0.70
2022-10-09T00:48:18.855Z,0.80
2022-10-09T00:48:28.821Z,0.90
2022-10-09T00:48:38.888Z,1.00
2022-10-09T00:48:49.076Z,0.70
2022-10-09T00:48:59.147Z,0.80
2022-10-09T00:49:08.897Z,0.60
2022-10-09T00:49:18.827Z,0.80
2022-10-09T00:49:28.912Z,0.80
2022-10-09T00:49:38.871Z,0.90
2022-10-09T00:49:48.844Z,0.90
2022-10-09T00:49:58.846Z,1.10
2022-10-09T00:50:08.852Z,0.90
2022-10-09T00:50:18.952Z,0.80
2022-10-09T00:50:28.878Z,0.60
2022-10-09T00:50:38.853Z,0.50
2022-10-09T00:50:48.997Z,0.60
2022-10-09T00:50:58.914Z,0.90
2022-10-09T00:51:08.889Z,1.00
2022-10-09T00:51:18.962Z,0.90
2022-10-09T00:51:28.887Z,0.80
2022-10-09T00:51:38.949Z,0.70
2022-10-09T00:51:48.828Z,0.70
2022-10-09T00:51:59.031Z,0.50
2022-10-09T00:52:08.895Z,0.70
2022-10-09T00:52:18.824Z,0.70
2022-10-09T00:52:28.825Z,0.70
2022-10-09T00:52:38.910Z,0.60
2022-10-09T00:52:49.176Z,0.60
2022-10-09T00:52:58.899Z,0.60
2022-10-09T00:53:08.931Z,0.70
2022-10-09T00:53:19.045Z,0.70
2022-10-09T00:53:29.091Z,0.70
2022-10-09T00:53:38.915Z,0.50
2022-10-09T00:53:48.853Z,0.50
2022-10-09T00:53:58.841Z,0.60
2022-10-09T00:54:08.859Z,0.70
2022-10-09T00:54:18.861Z,0.70
2022-10-09T00:54:28.928Z,0.60
2022-10-09T00:54:38.890Z,0.60
2022-10-09T00:54:48.910Z,0.70
2022-10-09T00:54:58.879Z,0.70
2022-10-09T00:55:08.951Z,0.60
2022-10-09T00:55:19.023Z,0.60
2022-10-09T00:55:30.125Z,0.70
2022-10-09T00:55:38.823Z,0.80
2022-10-09T00:55:48.937Z,0.70
2022-10-09T00:55:58.872Z,0.40
2022-10-09T00:56:08.900Z,0.50
2022-10-09T00:56:18.821Z,0.80
2022-10-09T00:56:28.920Z,0.90
2022-10-09T00:56:38.946Z,1.00
2022-10-09T00:56:48.949Z,0.80
2022-10-09T00:56:58.906Z,0.80
2022-10-09T00:57:08.853Z,0.60
2022-10-09T00:57:18.880Z,0.60
2022-10-09T00:57:28.823Z,0.70
2022-10-09T00:57:38.939Z,0.80
2022-10-09T00:57:48.891Z,0.90
2022-10-09T00:57:58.864Z,1.00
2022-10-09T00:58:08.945Z,0.90
2022-10-09T00:58:18.892Z,0.80
2022-10-09T00:58:28.883Z,0.70
2022-10-09T00:58:38.903Z,0.80
2022-10-09T00:58:48.841Z,0.70
2022-10-09T00:58:58.881Z,0.60
2022-10-09T00:59:08.846Z,0.60
2022-10-09T00:59:18.882Z,0.80
2022-10-09T00:59:28.942Z,1.10
2022-10-09T00:59:39.114Z,0.90
2022-10-09T00:59:48.837Z,0.80
2022-10-09T00:59:58.916Z,0.50
2022-10-09T01:00:08.892Z,0.60
2022-10-09T01:00:18.899Z,0.60
2022-10-09T01:00:28.914Z,0.80
2022-10-09T01:00:38.843Z,0.70
2022-10-09T01:00:48.830Z,0.60
2022-10-09T01:00:59.066Z,0.50
2022-10-09T01:01:17.657Z,0.60
2022-10-09T01:01:19.675Z,0.70
2022-10-09T01:01:29.642Z,0.90
2022-10-09T01:01:39.750Z,0.80
2022-10-09T01:01:49.009Z,0.90
2022-10-09T01:01:59.020Z,0.80
2022-10-09T01:02:08.947Z,0.90
2022-10-09T01:02:19.027Z,0.80
2022-10-09T01:02:28.978Z,0.90
2022-10-09T01:02:38.984Z,0.80
2022-10-09T01:02:49.184Z,0.80
2022-10-09T01:02:58.856Z,0.80
2022-10-09T01:03:08.911Z,1.20
2022-10-09T01:03:19.170Z,1.20
2022-10-09T01:03:29.152Z,1.20
2022-10-09T01:03:39.079Z,0.80
2022-10-09T01:03:48.904Z,0.70
2022-10-09T01:03:58.896Z,0.70
2022-10-09T01:04:08.857Z,0.80
2022-10-09T01:04:18.891Z,0.80
2022-10-09T01:04:28.851Z,0.90
2022-10-09T01:04:38.903Z,0.80
2022-10-09T01:04:48.839Z,0.60
2022-10-09T01:04:58.881Z,0.50
2022-10-09T01:05:10.536Z,0.60
2022-10-09T01:05:18.902Z,0.70
2022-10-09T01:05:28.871Z,0.90
2022-10-09T01:05:38.916Z,0.80
2022-10-09T01:05:48.869Z,1.00
2022-10-09T01:05:58.934Z,1.00
2022-10-09T01:06:08.827Z,1.00
2022-10-09T01:06:18.882Z,0.80
2022-10-09T01:06:28.925Z,1.10
2022-10-09T01:06:38.822Z,1.00
2022-10-09T01:06:48.859Z,1.00
2022-10-09T01:06:58.912Z,0.60
2022-10-09T01:07:08.945Z,0.90
2022-10-09T01:07:19.081Z,0.70
2022-10-09T01:07:28.831Z,0.80
2022-10-09T01:08:13.615Z,0.00
2022-10-09T01:08:13.835Z,0.00
2022-10-09T01:08:18.928Z,0.30
2022-10-09T01:08:19.137Z,0.30
2022-10-09T01:08:19.350Z,0.30
2022-10-09T01:08:28.912Z,0.50
2022-10-09T01:08:38.952Z,0.60
2022-10-09T01:08:48.945Z,0.70
2022-10-09T01:08:58.930Z,0.60
2022-10-09T01:09:08.914Z,0.50
2022-10-09T01:09:18.930Z,0.60
2022-10-09T01:09:28.885Z,0.80
2022-10-09T01:09:38.895Z,0.90
2022-10-09T01:09:48.849Z,0.90
2022-10-09T01:09:58.936Z,0.70
2022-10-09T01:10:08.873Z,0.70
2022-10-09T01:10:18.893Z,0.60
2022-10-09T01:10:28.899Z,1.00
2022-10-09T01:10:38.956Z,1.00
2022-10-09T01:10:48.846Z,1.10
2022-10-09T01:10:58.912Z,0.90
2022-10-09T01:11:08.899Z,0.80
2022-10-09T01:11:18.894Z,0.70
2022-10-09T01:11:28.832Z,0.90
2022-10-09T01:11:38.911Z,1.10
2022-10-09T01:11:48.856Z,1.10
2022-10-09T01:11:58.819Z,1.00
2022-10-09T01:12:08.846Z,0.80
2022-10-09T01:12:18.942Z,0.70
2022-10-09T01:12:28.860Z,0.60
2022-10-09T01:12:38.909Z,0.80
2022-10-09T01:12:49.168Z,0.80
2022-10-09T01:12:58.945Z,1.00
2022-10-09T01:13:08.937Z,0.90
2022-10-09T01:13:18.834Z,0.90
2022-10-09T01:13:28.914Z,0.70
2022-10-09T01:13:38.927Z,0.80
2022-10-09T01:13:48.851Z,1.00
2022-10-09T01:13:58.893Z,0.90
2022-10-09T01:14:08.863Z,0.80
2022-10-09T01:14:18.840Z,0.70
2022-10-09T01:14:28.930Z,0.80
2022-10-09T01:14:38.921Z,1.10
2022-10-09T01:14:48.891Z,1.10
2022-10-09T01:14:58.853Z,0.90
2022-10-09T01:15:08.886Z,0.70
2022-10-09T01:15:18.851Z,0.80
2022-10-09T01:15:28.963Z,0.80
2022-10-09T01:15:38.942Z,0.90
2022-10-09T01:15:48.874Z,0.70
2022-10-09T01:15:58.976Z,0.90
2022-10-09T01:16:08.948Z,1.00
2022-10-09T01:16:23.489Z,1.00
2022-10-09T01:16:28.876Z,1.00
2022-10-09T01:16:38.854Z,0.90
2022-10-09T01:16:48.852Z,0.90
2022-10-09T01:16:58.897Z,0.90
2022-10-09T01:17:08.908Z,0.90
2022-10-09T01:17:18.831Z,1.10
2022-10-09T01:17:28.939Z,1.30
2022-10-09T01:17:38.866Z,1.20
2022-10-09T01:17:48.825Z,1.10
2022-10-09T01:17:58.853Z,0.90
2022-10-09T01:18:08.830Z,1.20
2022-10-09T01:18:18.866Z,1.00
2022-10-09T01:18:28.897Z,0.80
2022-10-09T01:18:38.935Z,0.70
2022-10-09T01:18:48.901Z,0.80
2022-10-09T01:18:58.824Z,0.80
2022-10-09T01:19:08.858Z,0.90
2022-10-09T01:19:18.944Z,1.00
2022-10-09T01:19:28.938Z,1.20
2022-10-09T01:19:38.862Z,1.20
2022-10-09T01:19:48.834Z,1.20
2022-10-09T01:19:58.939Z,1.00
2022-10-09T01:20:08.940Z,0.90
2022-10-09T01:20:18.843Z,0.70
2022-10-09T01:20:28.885Z,0.70
2022-10-09T01:20:38.938Z,0.80
2022-10-09T01:20:48.918Z,0.90
2022-10-09T01:20:58.949Z,1.00
2022-10-09T01:21:08.956Z,1.00
2022-10-09T01:21:18.899Z,0.90
2022-10-09T01:21:28.909Z,0.70
2022-10-09T01:21:38.955Z,0.90
2022-10-09T01:21:48.867Z,1.00
2022-10-09T01:21:58.881Z,1.10
2022-10-09T01:22:08.894Z,1.10
2022-10-09T01:22:18.882Z,1.20
2022-10-09T01:22:28.859Z,1.20
2022-10-09T01:22:38.906Z,1.00
2022-10-09T01:22:49.152Z,0.90
2022-10-09T01:22:58.832Z,0.70
2022-10-09T01:23:08.924Z,0.60
2022-10-09T01:23:18.933Z,0.80
2022-10-09T01:23:28.867Z,0.90
2022-10-09T01:23:38.939Z,1.20
2022-10-09T01:23:48.934Z,0.90
2022-10-09T01:23:58.857Z,1.00
2022-10-09T01:24:08.942Z,0.80
2022-10-09T01:24:18.885Z,0.90
2022-10-09T01:24:28.851Z,0.80
2022-10-09T01:24:38.901Z,0.60
2022-10-09T01:24:48.829Z,0.60
2022-10-09T01:24:58.867Z,0.70
2022-10-09T01:25:08.851Z,0.90
2022-10-09T01:25:18.929Z,0.90
2022-10-09T01:25:28.867Z,0.90
2022-10-09T01:25:38.877Z,0.90
2022-10-09T01:25:48.883Z,0.90
2022-10-09T01:25:58.820Z,1.00
2022-10-09T01:26:08.917Z,1.00
2022-10-09T01:26:18.911Z,1.00
2022-10-09T01:26:28.935Z,1.00
2022-10-09T01:26:38.891Z,0.90
2022-10-09T01:26:48.842Z,1.00
2022-10-09T01:26:58.940Z,0.80
2022-10-09T01:27:08.906Z,0.90
2022-10-09T01:27:18.897Z,0.90
2022-10-09T01:27:28.838Z,0.80
2022-10-09T01:27:38.887Z,1.00
2022-10-09T01:27:48.859Z,1.20
2022-10-09T01:27:58.863Z,1.40
2022-10-09T01:28:08.971Z,1.20
2022-10-09T01:28:19.008Z,1.20
2022-10-09T01:28:29.043Z,1.10
2022-10-09T01:28:38.917Z,0.90
2022-10-09T01:28:48.835Z,0.80
2022-10-09T01:28:58.910Z,1.00
2022-10-09T01:29:08.898Z,1.20
2022-10-09T01:29:18.879Z,1.30
2022-10-09T01:29:28.925Z,1.30
2022-10-09T01:29:38.897Z,1.20
2022-10-09T01:29:48.851Z,1.10
2022-10-09T01:29:58.924Z,0.70
2022-10-09T01:30:08.885Z,0.60
2022-10-09T01:30:18.867Z,0.80
2022-10-09T01:30:28.827Z,1.00
2022-10-09T01:30:39.009Z,1.00
2022-10-09T01:30:48.957Z,0.80
2022-10-09T01:30:58.995Z,0.80
2022-10-09T01:31:08.909Z,0.80
2022-10-09T01:31:18.877Z,0.90
2022-10-09T01:31:28.906Z,1.00
2022-10-09T01:31:38.917Z,0.90
2022-10-09T01:31:48.899Z,0.80
2022-10-09T01:31:58.926Z,0.60
2022-10-09T01:32:08.836Z,0.70
2022-10-09T01:32:18.832Z,0.90
2022-10-09T01:32:28.824Z,1.10
2022-10-09T01:32:38.907Z,1.20
2022-10-09T01:32:49.254Z,1.20
2022-10-09T01:32:58.939Z,0.90
2022-10-09T01:33:08.830Z,0.80
2022-10-09T01:33:18.862Z,0.70
2022-10-09T01:33:28.955Z,1.10
2022-10-09T01:33:38.829Z,1.30
2022-10-09T01:33:48.875Z,1.20
2022-10-09T01:33:58.867Z,0.90
2022-10-09T01:34:08.854Z,0.80
2022-10-09T01:34:18.856Z,0.80
2022-10-09T01:34:28.834Z,0.70
2022-10-09T01:34:38.862Z,0.80
2022-10-09T01:34:48.943Z,0.80
2022-10-09T01:34:58.861Z,1.00
2022-10-09T01:35:08.879Z,1.10
2022-10-09T01:35:18.819Z,1.10
2022-10-09T01:35:28.898Z,0.90
2022-10-09T01:35:38.902Z,0.70
2022-10-09T01:35:48.937Z,0.70
2022-10-09T01:35:58.925Z,0.90
2022-10-09T01:36:08.908Z,1.20
2022-10-09T01:36:18.856Z,1.20
2022-10-09T01:36:28.924Z,1.30
2022-10-09T01:36:38.868Z,0.70
2022-10-09T01:36:48.931Z,0.70
2022-10-09T01:36:58.880Z,0.70
2022-10-09T01:37:08.832Z,1.00
2022-10-09T01:37:18.919Z,1.10
2022-10-09T01:37:28.890Z,1.00
2022-10-09T01:37:38.914Z,0.90
2022-10-09T01:37:48.935Z,1.00
2022-10-09T01:37:58.922Z,1.10
2022-10-09T01:38:08.945Z,1.10
2022-10-09T01:38:18.949Z,0.90
2022-10-09T01:38:28.887Z,1.00
2022-10-09T01:38:38.956Z,0.90
2022-10-09T01:38:48.923Z,0.90
2022-10-09T01:38:58.872Z,0.80
2022-10-09T01:39:08.884Z,0.80
2022-10-09T01:39:18.848Z,0.90
2022-10-09T01:39:28.852Z,1.00
2022-10-09T01:39:38.923Z,1.10
2022-10-09T01:39:48.896Z,1.30
2022-10-09T01:39:58.848Z,1.00
2022-10-09T01:40:08.885Z,1.00
2022-10-09T01:40:18.950Z,0.70
2022-10-09T01:40:28.932Z,0.90
2022-10-09T01:40:38.821Z,0.90
2022-10-09T01:40:48.908Z,1.00
2022-10-09T01:40:58.904Z,1.20
2022-10-09T01:41:08.917Z,1.30
2022-10-09T01:41:18.849Z,1.20
2022-10-09T01:41:28.924Z,1.00
2022-10-09T01:41:38.944Z,0.90
2022-10-09T01:41:48.909Z,0.80
2022-10-09T01:41:58.832Z,0.90
2022-10-09T01:42:08.833Z,0.80
2022-10-09T01:42:18.927Z,1.10
2022-10-09T01:42:28.878Z,1.10
2022-10-09T01:42:38.936Z,1.20
2022-10-09T01:42:49.216Z,0.90
2022-10-09T01:42:58.864Z,0.70
2022-10-09T01:43:08.903Z,0.60
2022-10-09T01:43:18.894Z,0.80
2022-10-09T01:43:28.938Z,1.00
2022-10-09T01:43:38.851Z,0.90
2022-10-09T01:43:48.823Z,0.80
2022-10-09T01:43:58.937Z,0.60
2022-10-09T01:44:08.879Z,0.90
2022-10-09T01:44:18.844Z,0.80
2022-10-09T01:44:28.881Z,1.20
2022-10-09T01:44:38.879Z,1.00
2022-10-09T01:44:48.948Z,1.00
2022-10-09T01:44:58.864Z,1.00
2022-10-09T01:45:08.867Z,1.10
2022-10-09T01:45:18.910Z,1.10
2022-10-09T01:45:28.829Z,0.70
2022-10-09T01:45:38.883Z,0.80
2022-10-09T01:45:48.909Z,0.80
2022-10-09T01:45:58.944Z,1.00
2022-10-09T01:46:08.937Z,0.90
2022-10-09T01:46:18.913Z,0.90
2022-10-09T01:46:28.923Z,0.90
2022-10-09T01:46:38.893Z,1.00
2022-10-09T01:46:48.851Z,0.90
2022-10-09T01:46:58.951Z,0.80
2022-10-09T01:47:08.853Z,0.70
2022-10-09T01:47:18.821Z,1.00
2022-10-09T01:47:28.894Z,1.10
2022-10-09T01:47:38.923Z,1.10
2022-10-09T01:47:48.847Z,1.00
2022-10-09T01:47:58.919Z,1.00
2022-10-09T01:48:08.838Z,0.80
2022-10-09T01:48:18.851Z,0.70
2022-10-09T01:48:28.838Z,0.50
2022-10-09T01:48:38.828Z,0.70
2022-10-09T01:48:48.840Z,0.70
2022-10-09T01:48:58.952Z,1.00
2022-10-09T01:49:08.835Z,0.90
2022-10-09T01:49:18.920Z,1.00
2022-10-09T01:49:28.859Z,0.90
2022-10-09T01:49:38.909Z,0.80
2022-10-09T01:49:48.835Z,0.80
2022-10-09T01:49:58.854Z,0.80
2022-10-09T01:50:08.860Z,0.90
2022-10-09T01:50:22.430Z,0.80
2022-10-09T01:50:28.955Z,1.00
2022-10-09T01:50:38.900Z,1.00
2022-10-09T01:50:48.859Z,1.10
2022-10-09T01:50:58.861Z,1.00
2022-10-09T01:51:08.894Z,1.00
2022-10-09T01:51:18.834Z,0.90
2022-10-09T01:51:28.879Z,0.80
2022-10-09T01:51:38.830Z,0.70
2022-10-09T01:51:48.892Z,0.90
2022-10-09T01:51:58.903Z,1.10
2022-10-09T01:52:08.858Z,1.30
2022-10-09T01:52:18.907Z,1.00
2022-10-09T01:52:28.843Z,0.80
2022-10-09T01:52:41.326Z,0.60
2022-10-09T01:52:49.133Z,0.70
2022-10-09T01:52:58.860Z,0.70
2022-10-09T01:53:08.923Z,0.80
2022-10-09T01:53:18.879Z,0.70
2022-10-09T01:53:28.870Z,0.70
2022-10-09T01:53:38.856Z,0.70
2022-10-09T01:53:48.834Z,0.90
2022-10-09T01:53:58.954Z,0.90
2022-10-09T01:54:08.844Z,1.10
2022-10-09T01:54:18.854Z,1.10
2022-10-09T01:54:28.893Z,1.10
2022-10-09T01:54:38.875Z,0.90
2022-10-09T01:54:48.879Z,1.10
2022-10-09T01:54:58.920Z,0.90
2022-10-09T01:55:08.880Z,0.80
2022-10-09T01:55:18.951Z,0.70
2022-10-09T01:55:28.898Z,0.80
2022-10-09T01:55:38.830Z,1.20
2022-10-09T01:55:48.928Z,1.00
2022-10-09T01:55:58.919Z,1.10
2022-10-09T01:56:08.847Z,0.90
2022-10-09T01:56:18.942Z,1.00
2022-10-09T01:56:28.944Z,1.10
2022-10-09T01:56:38.906Z,1.00
2022-10-09T01:56:48.927Z,0.80
2022-10-09T01:56:58.855Z,0.90
2022-10-09T01:57:08.932Z,1.10
2022-10-09T01:57:18.919Z,1.20
2022-10-09T01:57:28.895Z,1.00
2022-10-09T01:57:38.914Z,0.80
2022-10-09T01:57:48.904Z,0.90
2022-10-09T01:57:58.899Z,1.00
2022-10-09T01:58:08.892Z,1.20
2022-10-09T01:58:18.913Z,0.90
2022-10-09T01:58:28.869Z,1.10
2022-10-09T01:58:38.927Z,1.00
2022-10-09T01:58:48.851Z,1.20
2022-10-09T01:58:58.939Z,1.00
2022-10-09T01:59:12.390Z,0.90
2022-10-09T01:59:18.948Z,0.90
2022-10-09T01:59:28.845Z,1.00
2022-10-09T01:59:38.938Z,1.10
2022-10-09T01:59:48.833Z,1.10
2022-10-09T01:59:58.932Z,1.00
2022-10-09T02:00:08.852Z,0.90
2022-10-09T02:00:18.845Z,0.90
2022-10-09T02:00:28.951Z,1.00
2022-10-09T02:00:38.828Z,0.90
2022-10-09T02:00:48.883Z,0.70
2022-10-09T02:00:58.860Z,0.80
2022-10-09T02:01:08.965Z,0.90
2022-10-09T02:01:18.886Z,1.10
2022-10-09T02:01:29.006Z,0.90
2022-10-09T02:01:38.889Z,1.00
2022-10-09T02:01:48.951Z,1.00
2022-10-09T02:01:59.055Z,1.00
2022-10-09T02:02:09.093Z,1.00
2022-10-09T02:02:18.986Z,1.20
2022-10-09T02:02:28.944Z,1.10
2022-10-09T02:02:38.991Z,0.90
2022-10-09T02:02:49.247Z,0.70
2022-10-09T02:02:59.045Z,0.70
2022-10-09T02:03:08.925Z,0.80
2022-10-09T02:03:18.839Z,0.80
2022-10-09T02:03:28.900Z,1.00
2022-10-09T02:03:38.949Z,1.10
2022-10-09T02:03:48.872Z,1.20
2022-10-09T02:03:58.923Z,1.10
2022-10-09T02:04:08.936Z,0.90
2022-10-09T02:04:18.861Z,0.70
2022-10-09T02:04:28.931Z,0.70
2022-10-09T02:04:38.828Z,0.70
2022-10-09T02:04:48.905Z,0.90
2022-10-09T02:04:58.885Z,0.90
2022-10-09T02:05:08.889Z,1.00
2022-10-09T02:05:18.834Z,0.90
2022-10-09T02:05:28.891Z,1.00
2022-10-09T02:05:38.895Z,1.00
2022-10-09T02:05:48.921Z,1.10
2022-10-09T02:05:58.932Z,1.00
2022-10-09T02:06:08.929Z,0.90
2022-10-09T02:06:18.890Z,1.10
2022-10-09T02:06:28.898Z,1.00
2022-10-09T02:06:38.955Z,0.90
2022-10-09T02:06:48.868Z,0.50
2022-10-09T02:06:58.884Z,0.70
2022-10-09T02:07:08.871Z,0.70
2022-10-09T02:07:18.867Z,0.80
2022-10-09T02:07:28.848Z,0.90
2022-10-09T02:07:38.885Z,0.90
2022-10-09T02:07:48.919Z,0.90
2022-10-09T02:07:58.868Z,0.70
2022-10-09T02:08:08.854Z,0.70
2022-10-09T02:08:18.883Z,0.80
2022-10-09T02:08:28.943Z,0.90
2022-10-09T02:08:38.823Z,1.10
2022-10-09T02:08:48.911Z,1.00
2022-10-09T02:08:58.899Z,0.90
2022-10-09T02:09:08.905Z,0.70
2022-10-09T02:09:18.951Z,0.70
2022-10-09T02:09:28.857Z,1.10
2022-10-09T02:09:38.835Z,1.10
2022-10-09T02:09:48.822Z,1.10
2022-10-09T02:09:58.881Z,0.70
2022-10-09T02:10:10.012Z,0.90
2022-10-09T02:10:19.476Z,1.00
2022-10-09T02:10:29.042Z,1.20
2022-10-09T02:10:38.823Z,0.90
2022-10-09T02:10:48.896Z,1.00
2022-10-09T02:10:58.822Z,0.80
2022-10-09T02:11:08.876Z,1.00
2022-10-09T02:11:18.866Z,0.80
2022-10-09T02:11:28.878Z,0.80
2022-10-09T02:11:38.915Z,0.50
2022-10-09T02:11:48.907Z,0.50
2022-10-09T02:11:58.825Z,0.60
2022-10-09T02:12:08.926Z,0.70
2022-10-09T02:12:18.913Z,0.90
2022-10-09T02:12:28.915Z,0.90
2022-10-09T02:12:38.924Z,0.80
2022-10-09T02:12:49.155Z,0.60
2022-10-09T02:12:58.940Z,0.90
2022-10-09T02:13:08.883Z,1.00